Historyczne dane pomiarowe

Dodano dane terminowe – wersja testowa.

Dane z okresu 1951-2019

Wersja bazy: 1.34 [2019-03-16, lista zmian], aktualizacja planowana na 2019-04-15

Dane meteo z obszaru Polski uzyskane na podstawie danych udostępnionych przez Instytut Meteorologii i Gospodarki Wodnej – Państwowy Instytut Badawczy.

 

Wybierz Datę:    

       

TemperaturaWilgotnośćWiatrCiśnienieOpadyŚniegCzas trwania zjawisk
 Stacja t tx tn tng RH VA  wxwx mslp ppp RRR   cm mm wxwxwxwxwxwxwx
2019-06-13 26.1 33.6 18.9 18.3 60.0- 2.7 1.7---- 1.2------------
2019-06-12 25.5 32.9 17.6 17.0 54.5- 1.0 2.0---- 0.0------------
2019-06-11 25.3 33.2 17.9 17.2 56.8- 1.0 2.3---- 0.0------------
2019-06-10 24.4 32.2 17.0 16.4 63.8- 1.3 2.7---- 0.0------------
2019-06-09 20.7 27.0 14.0 13.1 52.5- 1.3 2.3---- 0.0------------
2019-06-08 22.7 30.3 16.8 16.3 58.8- 4.0 1.7---- 0.0------------
2019-06-07 22.6 28.3 16.7 16.0 63.8- 4.0 1.3---- 0.0------------
2019-06-06 21.2 27.6 14.5 13.9 59.3- 3.0 2.7---- 0.0------------
2019-06-05 21.4 26.8 15.4 14.8 67.8- 2.7 2.7---- 0.3------------
2019-06-04 21.4 28.3 14.4 13.5 65.0- 2.3 2.3---- 0.0------------
2019-06-03 20.6 27.1 13.9 13.1 65.5- 1.0 2.7---- 0.0------------
2019-06-02 19.7 27.2 13.5 12.7 72.3- 2.0 2.0---- 0.0------------
2019-06-01 17.4 25.1 11.5 10.4 75.3- 6.3 1.7---- 4.1------------
2019-05-31 16.0 23.3 9.6 9.0 64.5- 3.7 1.3---- 0.0------------
2019-05-30 11.4 13.0 10.5 9.4 75.8- 8.0 1.0---- 2.9------------
2019-05-29 14.5 19.6 12.1 11.9 82.3- 8.0 1.3---- 0.2------------
2019-05-28 18.5 22.7 14.4 13.0 78.3- 6.0 1.7---- 2.3------------
2019-05-27 19.4 25.9 12.3 11.4 62.0- 6.0 1.3---- 2.5------------
2019-05-26 18.5 24.7 12.4 11.0 64.8- 4.0 1.3---- 0.0------------
2019-05-25 15.7 23.1 9.0 8.7 67.5- 3.3 1.3---- 0.0------------
2019-05-24 12.3 13.9 10.7 10.5 97.5- 7.7 1.3---- 0.8------------
2019-05-23 12.6 14.0 11.7 11.4 95.3- 8.0 2.3---- 45.2------------
2019-05-22 14.1 15.9 12.8 12.4 88.3- 8.0 2.3---- 19.7------------
2019-05-21 15.5 19.8 13.3 12.9 78.0- 8.0 1.7---- 23.9------------
2019-05-20 18.3 23.2 14.2 13.1 76.3- 6.7 1.7---- 0.0------------
2019-05-19 16.0 22.8 10.3 9.6 83.3- 3.7 1.7---- 13.7------------
2019-05-18 16.7 23.8 9.4 8.2 69.5- 4.0 1.7---- 0.0------------
2019-05-17 15.1 20.4 11.3 11.3 77.3- 6.7 2.0---- 0.4------------
2019-05-16 13.0 17.9 8.9 8.3 82.8- 6.3 1.3---- 1.7------------
2019-05-15 8.9 10.9 6.4 6.5 97.0- 8.0 1.0---- 10.2------------
2019-05-14 6.1 7.5 4.5 4.5 93.3- 8.0 1.3---- 10.8------------
2019-05-13 8.1 11.0 6.9 6.0 80.3- 8.0 1.3---- 9.5------------
2019-05-12 13.4 19.7 9.8 9.9 76.3- 7.0 2.3---- 4.4------------
2019-05-11 15.2 21.2 9.9 8.9 58.3- 3.3 2.3---- 0.0------------
2019-05-10 12.2 19.2 6.9 5.4 75.5- 5.3 2.0---- 0.0------------
2019-05-09 9.3 13.0 6.3 5.4 83.5- 8.0 1.0---- 4.3------------
2019-05-08 10.1 17.0 2.9 1.6 58.5- 3.3 1.7---- 0.2------------
2019-05-07 9.6 13.7 6.1 5.0 53.8- 4.3 1.7---- 0.0------------
2019-05-06 8.1 10.5 5.9 5.0 55.0- 8.0 1.7---- 0.0------------
2019-05-05 7.1 13.9 3.9 3.9 89.5- 8.0 1.7---- 2.6------------
2019-05-04 11.2 16.4 5.9 4.6 63.3- 6.0 2.0---- 1.2------------
2019-05-03 11.2 16.7 8.1 6.7 75.0- 7.7 1.3---- 0.1------------
2019-05-02 14.8 20.7 9.1 8.0 57.3- 3.3 3.0---- 0.2------------
2019-05-01 12.4 19.1 6.6 5.8 67.3- 4.0 2.3---- 0.4------------
2019-04-30 11.6 13.7 10.0 9.9 95.0- 7.0 0.7---- 4.2------------
2019-04-29 10.1 11.0 8.9 8.5 95.5- 8.0 1.7---- 12.7------------
2019-04-28 10.4 12.5 9.3 9.0 95.8- 8.0 2.7---- 34.2------------
2019-04-27 15.3 23.4 12.3 11.9 78.3- 8.0 2.3---- 13.9------------
2019-04-26 19.3 28.7 10.3 8.3 50.0- 6.0 1.7---- 0.1------------
2019-04-25 18.2 27.4 9.5 7.8 55.0- 1.7 2.0---- 0.0------------
2019-04-24 14.7 18.6 11.2 8.9 60.5- 5.3 2.7---- 0.0------------
2019-04-23 12.6 18.7 6.8 5.0 54.0- 5.0 3.3---- 0.0------------
2019-04-22 11.7 16.4 8.0 6.0 68.8- 4.3 3.3---- 1.5------------
2019-04-21 11.2 19.6 4.0 2.4 49.5- 2.3 1.0---- 0.2------------
2019-04-20 12.1 22.2 3.1 1.3 42.3- 3.7 2.0---- 0.0------------
2019-04-19 11.9 20.7 3.7 1.7 49.8- 0.0 1.3---- 0.0------------
2019-04-18 10.8 18.7 2.8 0.8 60.8- 0.7 1.7---- 0.0------------
2019-04-17 9.9 15.5 5.1 5.0 67.8- 5.0 1.0---- 0.0------------
2019-04-16 7.0 14.8 -1.1 -3.6 49.8- 1.3 2.3---- 0.2------------
2019-04-15 6.7 12.6 1.5 -2.6 49.0- 0.7 2.0---- 0.0------------
195.6 ms

 

Źródłem pochodzenia danych jest Instytut Meteorologii i Gospodarki Wodnej – Państwowy Instytut Badawczy. Dane Instytutu Meteorologii i Gospodarki Wodnej – Państwowego Instytutu Badawczego zostały przetworzone.

Dane źródłowe można odnaleźć na stronie https://dane.imgw.pl